createdAt,value
2017-10-08T00:01:55.741Z,66.79
2017-10-08T00:04:23.300Z,66.90
2017-10-08T00:06:50.812Z,66.97
2017-10-08T00:09:18.621Z,67.03
2017-10-08T00:11:46.130Z,67.16
2017-10-08T00:14:13.638Z,67.35
2017-10-08T00:16:41.187Z,67.11
2017-10-08T00:19:08.694Z,67.05
2017-10-08T00:21:36.202Z,67.21
2017-10-08T00:24:03.977Z,66.76
2017-10-08T00:26:31.536Z,66.47
2017-10-08T00:28:59.046Z,66.69
2017-10-08T00:31:26.758Z,66.67
2017-10-08T00:33:54.270Z,67.02
2017-10-08T00:36:21.777Z,67.34
2017-10-08T00:38:49.536Z,67.66
2017-10-08T00:41:17.050Z,67.33
2017-10-08T00:43:44.557Z,66.33
2017-10-08T00:46:12.498Z,66.96
2017-10-08T00:48:40.011Z,66.20
2017-10-08T00:51:07.519Z,66.66
2017-10-08T00:53:35.095Z,67.03
2017-10-08T00:56:02.675Z,66.77
2017-10-08T00:58:30.260Z,67.56
2017-10-08T01:00:58.181Z,68.08
2017-10-08T01:03:25.742Z,68.11
2017-10-08T01:05:53.302Z,67.57
2017-10-08T01:08:21.166Z,66.80
2017-10-08T01:10:48.681Z,66.16
2017-10-08T01:13:16.199Z,66.16
2017-10-08T01:15:43.755Z,66.54
2017-10-08T01:18:11.320Z,67.09
2017-10-08T01:20:38.858Z,66.47
2017-10-08T01:23:06.419Z,66.97
2017-10-08T01:25:33.978Z,67.36
2017-10-08T01:28:01.488Z,67.97
2017-10-08T01:30:29.046Z,67.52
2017-10-08T01:32:56.562Z,66.96
2017-10-08T01:35:24.112Z,66.69
2017-10-08T01:37:51.886Z,67.87
2017-10-08T01:40:19.845Z,68.47
2017-10-08T01:42:48.229Z,68.18
2017-10-08T01:45:16.800Z,67.70
2017-10-08T01:47:44.439Z,67.03
2017-10-08T01:50:12.020Z,66.82
2017-10-08T01:52:39.831Z,67.74
2017-10-08T01:55:07.349Z,67.21
2017-10-08T01:57:34.908Z,68.43
2017-10-08T02:00:02.673Z,68.67
2017-10-08T02:02:30.272Z,68.44
2017-10-08T02:04:57.782Z,69.03
2017-10-08T02:07:25.451Z,69.06
2017-10-08T02:09:53.006Z,69.08
2017-10-08T02:12:20.628Z,69.26
2017-10-08T02:14:48.267Z,68.54
2017-10-08T02:17:15.779Z,69.53
2017-10-08T02:19:43.464Z,68.50
2017-10-08T02:22:11.727Z,69.41
2017-10-08T02:24:39.512Z,69.02
2017-10-08T02:27:07.115Z,68.47
2017-10-08T02:29:34.727Z,68.42
2017-10-08T02:32:02.279Z,68.69
2017-10-08T02:34:29.831Z,68.28
2017-10-08T02:36:57.626Z,68.50
2017-10-08T02:39:25.178Z,67.64
2017-10-08T02:41:52.701Z,69.13
2017-10-08T02:44:20.449Z,68.88
2017-10-08T02:46:47.959Z,67.53
2017-10-08T02:49:15.491Z,66.90
2017-10-08T02:51:43.170Z,68.17
2017-10-08T02:54:10.711Z,68.61
2017-10-08T02:56:41.241Z,68.54
2017-10-08T02:59:09.008Z,68.10
2017-10-08T03:01:36.575Z,67.81
2017-10-08T03:04:04.123Z,67.98
2017-10-08T03:06:32.399Z,68.13
2017-10-08T03:08:59.957Z,67.03
2017-10-08T03:11:27.462Z,68.68
2017-10-08T03:13:55.362Z,68.31
2017-10-08T03:16:22.870Z,69.32
2017-10-08T03:18:50.399Z,69.29
2017-10-08T03:21:17.947Z,70.90
2017-10-08T03:23:45.462Z,71.95
2017-10-08T03:26:12.974Z,72.35
2017-10-08T03:28:40.814Z,72.97
2017-10-08T03:31:08.328Z,72.82
2017-10-08T03:33:35.869Z,73.62
2017-10-08T03:36:03.434Z,73.37
2017-10-08T03:38:30.974Z,74.66
2017-10-08T03:40:58.477Z,73.61
2017-10-08T03:43:26.172Z,73.69
2017-10-08T03:45:53.755Z,73.54
2017-10-08T03:48:21.304Z,74.30
2017-10-08T03:50:49.155Z,74.83
2017-10-08T03:53:16.676Z,74.81
2017-10-08T03:55:45.186Z,74.73
2017-10-08T03:58:12.731Z,74.94
2017-10-08T04:00:40.439Z,74.71
2017-10-08T04:03:07.999Z,74.83
2017-10-08T04:05:35.621Z,74.70
2017-10-08T04:08:03.133Z,74.32
2017-10-08T04:10:30.675Z,74.40
2017-10-08T04:12:58.541Z,74.71
2017-10-08T04:15:26.108Z,74.85
2017-10-08T04:17:53.671Z,74.83
2017-10-08T04:20:21.345Z,75.76
2017-10-08T04:22:48.881Z,75.78
2017-10-08T04:25:16.448Z,75.43
2017-10-08T04:27:44.002Z,75.84
2017-10-08T04:30:11.559Z,75.69
2017-10-08T04:32:39.065Z,76.15
2017-10-08T04:35:06.624Z,75.72
2017-10-08T04:37:34.133Z,75.86
2017-10-08T04:40:01.694Z,75.37
2017-10-08T04:42:29.569Z,75.97
2017-10-08T04:44:57.082Z,76.02
2017-10-08T04:47:24.603Z,75.41
2017-10-08T04:49:52.326Z,76.17
2017-10-08T04:52:19.841Z,76.43
2017-10-08T04:54:47.391Z,76.25
2017-10-08T04:57:15.123Z,75.14
2017-10-08T04:59:42.678Z,75.12
2017-10-08T05:02:10.192Z,75.87
2017-10-08T05:04:37.897Z,76.12
2017-10-08T05:07:05.457Z,75.37
2017-10-08T05:09:32.963Z,76.32
2017-10-08T05:12:00.758Z,75.37
2017-10-08T05:14:28.270Z,74.60
2017-10-08T05:16:55.785Z,76.36
2017-10-08T05:19:23.560Z,76.10
2017-10-08T05:21:51.117Z,75.94
2017-10-08T05:24:18.635Z,76.20
2017-10-08T05:26:46.314Z,76.16
2017-10-08T05:29:13.886Z,75.85
2017-10-08T05:31:41.389Z,79.45
2017-10-08T05:34:08.930Z,79.49
2017-10-08T05:36:36.473Z,79.70
2017-10-08T05:39:04.033Z,79.38
2017-10-08T05:41:31.879Z,77.99
2017-10-08T05:43:59.389Z,75.00
2017-10-08T05:46:26.913Z,74.93
2017-10-08T05:48:54.576Z,74.29
2017-10-08T05:51:22.136Z,73.93
2017-10-08T05:53:49.693Z,73.60
2017-10-08T05:56:17.250Z,73.27
2017-10-08T05:58:44.758Z,73.54
2017-10-08T06:01:12.262Z,72.36
2017-10-08T06:03:39.934Z,72.22
2017-10-08T06:06:07.489Z,72.58
2017-10-08T06:08:35.047Z,72.29
2017-10-08T06:11:02.611Z,71.85
2017-10-08T06:13:30.176Z,71.44
2017-10-08T06:15:57.690Z,72.23
2017-10-08T06:18:25.289Z,71.49
2017-10-08T06:20:53.765Z,71.64
2017-10-08T06:23:21.323Z,71.14
2017-10-08T06:25:48.864Z,72.36
2017-10-08T06:28:16.378Z,72.66
2017-10-08T06:30:43.915Z,71.98
2017-10-08T06:33:11.486Z,71.68
2017-10-08T06:35:39.003Z,72.22
2017-10-08T06:38:06.513Z,71.86
2017-10-08T06:40:34.211Z,71.99
2017-10-08T06:43:01.773Z,72.58
2017-10-08T06:45:29.282Z,73.22
2017-10-08T06:47:56.820Z,71.17
2017-10-08T06:50:24.341Z,71.75
2017-10-08T06:52:51.854Z,71.13
2017-10-08T06:55:19.390Z,71.27
2017-10-08T06:57:46.929Z,71.40
2017-10-08T07:00:14.450Z,71.26
2017-10-08T07:02:42.165Z,71.60
2017-10-08T07:05:09.733Z,70.59
2017-10-08T07:07:37.286Z,71.61
2017-10-08T07:10:04.838Z,71.87
2017-10-08T07:12:32.349Z,71.66
2017-10-08T07:14:59.874Z,71.14
2017-10-08T07:17:27.624Z,71.53
2017-10-08T07:19:56.036Z,70.76
2017-10-08T07:22:23.663Z,70.89
2017-10-08T07:24:51.401Z,71.84
2017-10-08T07:27:18.925Z,70.47
2017-10-08T07:29:46.450Z,69.93
2017-10-08T07:32:14.017Z,69.52
2017-10-08T07:34:41.578Z,69.66
2017-10-08T07:37:09.122Z,68.98
2017-10-08T07:39:36.883Z,68.67
2017-10-08T07:42:04.399Z,68.99
2017-10-08T07:44:31.914Z,68.63
2017-10-08T07:46:59.638Z,69.24
2017-10-08T07:49:27.167Z,68.48
2017-10-08T07:51:54.691Z,68.02
2017-10-08T07:54:22.444Z,68.03
2017-10-08T07:56:49.963Z,67.74
2017-10-08T07:59:17.506Z,67.48
2017-10-08T08:01:45.325Z,67.20
2017-10-08T08:04:12.845Z,67.50
2017-10-08T08:06:40.420Z,68.10
2017-10-08T08:09:07.987Z,68.22
2017-10-08T08:11:35.507Z,68.50
2017-10-08T08:14:03.623Z,67.58
2017-10-08T08:16:31.294Z,66.80
2017-10-08T08:18:58.854Z,66.87
2017-10-08T08:21:26.373Z,66.20
2017-10-08T08:23:53.922Z,65.75
2017-10-08T08:26:21.446Z,65.75
2017-10-08T08:28:48.977Z,65.50
2017-10-08T08:31:16.751Z,65.19
2017-10-08T08:33:44.260Z,63.94
2017-10-08T08:36:11.767Z,63.31
2017-10-08T08:38:39.530Z,63.91
2017-10-08T08:41:07.045Z,63.56
2017-10-08T08:43:34.554Z,63.98
2017-10-08T08:46:02.143Z,64.03
2017-10-08T08:48:29.665Z,63.50
2017-10-08T08:50:57.274Z,64.25
2017-10-08T08:53:25.067Z,62.60
2017-10-08T08:55:52.582Z,62.94
2017-10-08T08:58:20.098Z,61.57
2017-10-08T09:00:47.973Z,61.73
2017-10-08T09:03:15.525Z,61.73
2017-10-08T09:05:43.042Z,63.02
2017-10-08T09:08:10.854Z,62.29
2017-10-08T09:10:38.358Z,61.92
2017-10-08T09:13:05.871Z,61.47
2017-10-08T09:15:33.506Z,63.13
2017-10-08T09:18:01.019Z,62.20
2017-10-08T09:20:28.543Z,62.79
2017-10-08T09:22:56.147Z,62.01
2017-10-08T09:25:23.666Z,62.27
2017-10-08T09:27:51.181Z,62.00
2017-10-08T09:30:18.727Z,61.40
2017-10-08T09:32:46.548Z,61.33
2017-10-08T09:35:14.312Z,61.43
2017-10-08T09:37:42.280Z,61.15
2017-10-08T09:40:09.941Z,60.42
2017-10-08T09:42:37.605Z,59.63
2017-10-08T09:45:05.347Z,59.14
2017-10-08T09:47:32.876Z,58.92
2017-10-08T09:50:00.404Z,58.37
2017-10-08T09:52:28.146Z,57.71
2017-10-08T09:54:55.663Z,58.09
2017-10-08T09:57:23.184Z,57.73
2017-10-08T09:59:50.760Z,57.97
2017-10-08T10:02:18.498Z,57.35
2017-10-08T10:04:46.264Z,57.29
2017-10-08T10:07:14.219Z,57.33
2017-10-08T10:09:41.825Z,56.15
2017-10-08T10:12:09.368Z,53.64
2017-10-08T10:14:37.262Z,51.58
2017-10-08T10:17:05.173Z,47.90
2017-10-08T10:19:32.951Z,46.15
2017-10-08T10:22:00.912Z,46.51
2017-10-08T10:24:28.565Z,50.04
2017-10-08T10:26:56.238Z,51.89
2017-10-08T10:29:24.220Z,52.39
2017-10-08T10:31:51.962Z,51.97
2017-10-08T10:34:19.519Z,51.85
2017-10-08T10:36:47.283Z,50.70
2017-10-08T10:39:14.863Z,51.60
2017-10-08T10:41:42.624Z,51.39
2017-10-08T10:44:10.370Z,51.64
2017-10-08T10:46:37.920Z,52.30
2017-10-08T10:49:06.105Z,51.67
2017-10-08T10:51:33.969Z,50.65
2017-10-08T10:54:01.673Z,48.98
2017-10-08T10:56:29.394Z,48.04
2017-10-08T10:58:57.253Z,47.71
2017-10-08T11:01:24.943Z,46.61
2017-10-08T11:03:52.572Z,46.17
2017-10-08T11:06:20.553Z,47.76
2017-10-08T11:08:48.317Z,48.39
2017-10-08T11:11:16.042Z,48.14
2017-10-08T11:13:43.843Z,50.21
2017-10-08T11:16:11.422Z,51.68
2017-10-08T11:18:39.475Z,51.56
2017-10-08T11:21:07.203Z,52.95
2017-10-08T11:23:34.899Z,52.44
2017-10-08T11:26:02.563Z,51.69
2017-10-08T11:28:30.632Z,51.54
2017-10-08T11:30:58.416Z,49.40
2017-10-08T11:33:26.220Z,49.25
2017-10-08T11:35:56.386Z,48.87
2017-10-08T11:38:24.248Z,50.20
2017-10-08T11:40:52.023Z,51.01
2017-10-08T11:43:20.084Z,50.77
2017-10-08T11:45:48.229Z,48.78
2017-10-08T11:48:15.917Z,35.85
2017-10-08T11:50:43.500Z,29.73
2017-10-08T11:53:11.139Z,25.91
2017-10-08T11:55:39.101Z,22.81
2017-10-08T11:58:06.973Z,22.49
2017-10-08T12:00:34.839Z,26.26
2017-10-08T12:03:02.509Z,29.50
2017-10-08T12:05:30.321Z,31.58
2017-10-08T12:07:58.133Z,33.95
2017-10-08T12:10:25.674Z,34.14
2017-10-08T12:12:53.658Z,36.26
2017-10-08T12:15:21.420Z,34.86
2017-10-08T12:17:50.122Z,31.23
2017-10-08T12:20:17.872Z,26.39
2017-10-08T12:22:45.656Z,25.43
2017-10-08T12:25:13.553Z,25.50
2017-10-08T12:27:41.390Z,29.28
2017-10-08T12:30:08.966Z,33.66
2017-10-08T12:32:36.519Z,34.63
2017-10-08T12:35:04.456Z,35.81
2017-10-08T12:37:32.136Z,37.46
2017-10-08T12:39:59.809Z,37.25
2017-10-08T12:42:27.472Z,38.62
2017-10-08T12:44:55.269Z,40.95
2017-10-08T12:47:22.833Z,41.32
2017-10-08T12:49:50.733Z,41.61
2017-10-08T12:52:18.599Z,43.44
2017-10-08T12:54:46.262Z,44.61
2017-10-08T12:57:14.208Z,46.62
2017-10-08T12:59:41.890Z,47.07
2017-10-08T13:02:09.757Z,48.49
2017-10-08T13:04:37.419Z,47.92
2017-10-08T13:07:05.184Z,48.45
2017-10-08T13:09:33.775Z,47.85
2017-10-08T13:12:01.752Z,47.89
2017-10-08T13:14:29.523Z,48.86
2017-10-08T13:16:57.261Z,49.59
2017-10-08T13:19:25.332Z,49.23
2017-10-08T13:21:53.404Z,48.49
2017-10-08T13:24:21.068Z,47.81
2017-10-08T13:26:50.570Z,48.15
2017-10-08T13:29:18.868Z,47.80
2017-10-08T13:31:46.825Z,48.46
2017-10-08T13:34:14.565Z,49.03
2017-10-08T13:36:42.138Z,49.02
2017-10-08T13:39:09.761Z,49.83
2017-10-08T13:41:37.614Z,50.35
2017-10-08T13:44:05.157Z,49.48
2017-10-08T13:46:32.693Z,49.23
2017-10-08T13:49:00.864Z,49.11
2017-10-08T13:51:28.721Z,49.89
2017-10-08T13:53:56.280Z,49.95
2017-10-08T13:56:24.261Z,49.70
2017-10-08T13:58:51.912Z,49.18
2017-10-08T14:01:19.510Z,49.05
2017-10-08T14:03:47.446Z,48.63
2017-10-08T14:06:15.305Z,48.47
2017-10-08T14:08:43.069Z,48.57
2017-10-08T14:11:10.936Z,47.56
2017-10-08T14:13:38.494Z,48.10
2017-10-08T14:16:06.068Z,48.66
2017-10-08T14:18:33.982Z,48.97
2017-10-08T14:21:02.256Z,49.03
2017-10-08T14:23:30.472Z,48.53
2017-10-08T14:25:58.543Z,48.48
2017-10-08T14:28:26.065Z,49.29
2017-10-08T14:30:53.967Z,48.83
2017-10-08T14:33:21.861Z,48.97
2017-10-08T14:35:49.391Z,49.71
2017-10-08T14:38:17.761Z,50.41
2017-10-08T14:40:46.558Z,50.76
2017-10-08T14:43:14.324Z,50.98
2017-10-08T14:45:42.093Z,51.04
2017-10-08T14:48:09.999Z,50.62
2017-10-08T14:50:37.570Z,50.94
2017-10-08T14:53:05.141Z,51.13
2017-10-08T14:55:32.723Z,50.91
2017-10-08T14:58:00.394Z,51.17
2017-10-08T15:00:28.161Z,50.20
2017-10-08T15:02:55.757Z,50.39
2017-10-08T15:05:23.535Z,51.02
2017-10-08T15:07:51.563Z,50.65
2017-10-08T15:10:19.399Z,51.63
2017-10-08T15:12:47.034Z,51.43
2017-10-08T15:15:14.715Z,51.75
2017-10-08T15:17:42.916Z,52.65
2017-10-08T15:20:10.575Z,52.51
2017-10-08T15:22:38.135Z,51.99
2017-10-08T15:25:06.310Z,51.91
2017-10-08T15:27:34.294Z,51.65
2017-10-08T15:30:02.145Z,52.24
2017-10-08T15:32:29.876Z,52.65
2017-10-08T15:34:57.674Z,53.02
2017-10-08T15:37:28.774Z,52.78
2017-10-08T15:39:56.375Z,52.38
2017-10-08T15:42:25.879Z,52.53
2017-10-08T15:44:53.440Z,52.07
2017-10-08T15:47:21.358Z,53.24
2017-10-08T15:49:49.098Z,51.85
2017-10-08T15:52:17.653Z,52.04
2017-10-08T15:54:45.825Z,52.70
2017-10-08T15:57:13.488Z,52.49
2017-10-08T15:59:41.882Z,52.90
2017-10-08T16:02:10.267Z,53.53
2017-10-08T16:04:38.007Z,52.80
2017-10-08T16:07:05.682Z,52.28
2017-10-08T16:09:33.536Z,52.87
2017-10-08T16:12:01.812Z,56.29
2017-10-08T16:14:29.489Z,57.68
2017-10-08T16:16:57.357Z,57.71
2017-10-08T16:19:25.308Z,57.66
2017-10-08T16:21:52.971Z,57.90
2017-10-08T16:24:20.740Z,58.09
2017-10-08T16:26:48.498Z,57.95
2017-10-08T16:29:16.255Z,57.58
2017-10-08T16:31:44.039Z,57.80
2017-10-08T16:34:11.778Z,57.18
2017-10-08T16:36:39.442Z,56.89
2017-10-08T16:39:07.366Z,57.55
2017-10-08T16:41:35.549Z,57.42
2017-10-08T16:44:03.264Z,57.30
2017-10-08T16:46:30.906Z,56.86
2017-10-08T16:48:58.697Z,57.52
2017-10-08T16:51:26.546Z,57.27
2017-10-08T16:53:54.515Z,57.76
2017-10-08T16:56:22.483Z,57.83
2017-10-08T16:58:50.264Z,57.81
2017-10-08T17:01:18.526Z,57.90
2017-10-08T17:03:47.004Z,58.28
2017-10-08T17:06:14.790Z,58.59
2017-10-08T17:08:42.575Z,58.16
2017-10-08T17:11:10.819Z,58.73
2017-10-08T17:13:38.893Z,58.56
2017-10-08T17:16:06.767Z,58.57
2017-10-08T17:18:34.514Z,59.12
2017-10-08T17:21:02.442Z,58.52
2017-10-08T17:23:30.700Z,58.67
2017-10-08T17:25:58.723Z,58.89
2017-10-08T17:28:26.692Z,59.49
2017-10-08T17:30:54.764Z,60.07
2017-10-08T17:33:22.597Z,59.63
2017-10-08T17:35:50.358Z,59.76
2017-10-08T17:38:18.772Z,59.57
2017-10-08T17:40:47.354Z,59.70
2017-10-08T17:43:15.145Z,60.21
2017-10-08T17:45:43.600Z,60.39
2017-10-08T17:48:11.364Z,60.11
2017-10-08T17:50:39.246Z,60.35
2017-10-08T17:53:07.242Z,60.46
2017-10-08T17:55:35.355Z,59.92
2017-10-08T17:58:03.112Z,60.86
2017-10-08T18:00:31.002Z,60.84
2017-10-08T18:02:58.881Z,61.01
2017-10-08T18:05:27.119Z,61.75
2017-10-08T18:07:55.963Z,62.01
2017-10-08T18:10:23.798Z,61.77
2017-10-08T18:12:51.626Z,62.93
2017-10-08T18:15:20.602Z,62.63
2017-10-08T18:17:49.254Z,62.51
2017-10-08T18:20:18.028Z,63.46
2017-10-08T18:22:46.099Z,63.14
2017-10-08T18:25:15.115Z,62.62
2017-10-08T18:27:43.572Z,62.60
2017-10-08T18:30:11.854Z,62.17
2017-10-08T18:32:39.630Z,63.22
2017-10-08T18:35:07.446Z,62.43
2017-10-08T18:37:35.513Z,62.66
2017-10-08T18:40:03.519Z,62.55
2017-10-08T18:42:31.319Z,62.36
2017-10-08T18:44:59.262Z,63.19
2017-10-08T18:47:27.234Z,63.41
2017-10-08T18:49:54.985Z,63.63
2017-10-08T18:52:23.160Z,63.55
2017-10-08T18:54:51.024Z,63.34
2017-10-08T18:57:18.841Z,63.60
2017-10-08T18:59:47.344Z,64.10
2017-10-08T19:02:15.145Z,63.18
2017-10-08T19:04:42.909Z,63.55
2017-10-08T19:07:12.099Z,63.86
2017-10-08T19:09:40.348Z,63.65
2017-10-08T19:12:08.240Z,63.27
2017-10-08T19:14:36.515Z,62.65
2017-10-08T19:17:05.258Z,62.29
2017-10-08T19:19:32.966Z,61.82
2017-10-08T19:22:01.240Z,62.24
2017-10-08T19:24:29.017Z,61.81
2017-10-08T19:26:56.829Z,62.09
2017-10-08T19:29:24.850Z,61.63
2017-10-08T19:31:53.220Z,62.43
2017-10-08T19:34:21.085Z,61.57
2017-10-08T19:36:49.262Z,61.89
2017-10-08T19:39:17.228Z,62.29
2017-10-08T19:41:45.093Z,62.99
2017-10-08T19:44:13.165Z,63.54
2017-10-08T19:46:41.354Z,63.29
2017-10-08T19:49:09.456Z,63.11
2017-10-08T19:51:37.746Z,62.98
2017-10-08T19:54:05.668Z,63.16
2017-10-08T19:56:33.825Z,63.09
2017-10-08T19:59:01.796Z,63.99
2017-10-08T20:01:29.664Z,64.38
2017-10-08T20:03:57.441Z,64.44
2017-10-08T20:06:25.778Z,65.06
2017-10-08T20:08:53.670Z,65.04
2017-10-08T20:11:21.437Z,65.33
2017-10-08T20:13:49.208Z,65.28
2017-10-08T20:16:17.270Z,65.26
2017-10-08T20:18:45.136Z,64.82
2017-10-08T20:21:13.070Z,65.20
2017-10-08T20:23:41.290Z,66.00
2017-10-08T20:26:09.144Z,65.85
2017-10-08T20:28:37.216Z,65.78
2017-10-08T20:31:04.994Z,64.51
2017-10-08T20:33:32.857Z,65.67
2017-10-08T20:36:02.760Z,65.61
2017-10-08T20:38:30.565Z,66.18
2017-10-08T20:40:58.394Z,66.52
2017-10-08T20:43:26.259Z,66.51
2017-10-08T20:45:54.914Z,66.50
2017-10-08T20:48:22.757Z,65.58
2017-10-08T20:50:50.782Z,65.22
2017-10-08T20:53:18.747Z,65.11
2017-10-08T20:55:46.517Z,64.27
2017-10-08T20:58:14.788Z,64.55
2017-10-08T21:00:42.652Z,64.32
2017-10-08T21:03:10.881Z,64.67
2017-10-08T21:05:39.005Z,65.19
2017-10-08T21:08:06.866Z,64.90
2017-10-08T21:10:34.958Z,65.01
2017-10-08T21:13:04.088Z,65.52
2017-10-08T21:15:32.104Z,65.84
2017-10-08T21:17:59.875Z,66.47
2017-10-08T21:20:27.773Z,66.98
2017-10-08T21:22:56.552Z,66.67
2017-10-08T21:25:24.336Z,67.32
2017-10-08T21:27:52.151Z,68.49
2017-10-08T21:30:20.652Z,69.01
2017-10-08T21:32:48.189Z,69.22
2017-10-08T21:35:16.057Z,69.29
2017-10-08T21:37:44.378Z,68.19
2017-10-08T21:40:13.863Z,67.87
2017-10-08T21:42:42.624Z,67.90
2017-10-08T21:45:10.138Z,67.78
2017-10-08T21:47:38.563Z,67.45
2017-10-08T21:50:06.302Z,67.22
2017-10-08T21:52:33.826Z,67.69
2017-10-08T21:55:01.490Z,67.12
2017-10-08T21:57:29.307Z,67.29
2017-10-08T21:59:56.875Z,66.89
2017-10-08T22:02:24.431Z,67.19
2017-10-08T22:04:52.910Z,67.27
2017-10-08T22:07:20.471Z,67.62
2017-10-08T22:09:48.881Z,68.45
2017-10-08T22:12:16.799Z,68.45
2017-10-08T22:14:44.310Z,67.63
2017-10-08T22:17:11.822Z,67.41
2017-10-08T22:19:40.523Z,67.74
2017-10-08T22:22:08.077Z,68.28
2017-10-08T22:24:35.636Z,67.66
2017-10-08T22:27:03.401Z,67.37
2017-10-08T22:29:31.881Z,66.91
2017-10-08T22:31:59.441Z,66.67
2017-10-08T22:36:53.945Z,66.81
2017-10-08T22:39:22.069Z,66.67
2017-10-08T22:41:49.883Z,66.71
2017-10-08T22:44:17.441Z,66.44
2017-10-08T22:46:45.000Z,67.17
2017-10-08T22:49:12.764Z,67.11
2017-10-08T22:51:40.532Z,67.01
2017-10-08T22:54:08.086Z,67.14
2017-10-08T22:56:36.056Z,67.52
2017-10-08T22:59:03.615Z,67.40
2017-10-08T23:01:31.144Z,66.65
2017-10-08T23:03:59.927Z,66.85
2017-10-08T23:06:27.521Z,66.76
2017-10-08T23:08:55.096Z,67.14
2017-10-08T23:11:22.674Z,66.86
2017-10-08T23:13:50.190Z,66.27
2017-10-08T23:16:17.724Z,65.99
2017-10-08T23:18:45.327Z,66.49
2017-10-08T23:21:13.182Z,65.91
2017-10-08T23:23:40.842Z,66.39
2017-10-08T23:26:08.609Z,66.09
2017-10-08T23:28:36.118Z,65.99
2017-10-08T23:31:03.623Z,65.70
2017-10-08T23:33:31.387Z,65.73
2017-10-08T23:35:58.893Z,66.21
2017-10-08T23:38:26.406Z,66.51
2017-10-08T23:40:54.086Z,66.39
2017-10-08T23:43:21.829Z,66.41
2017-10-08T23:45:49.349Z,66.14
2017-10-08T23:48:17.254Z,66.30
2017-10-08T23:50:44.770Z,66.82
2017-10-08T23:53:12.281Z,66.90
2017-10-08T23:55:40.035Z,67.29
2017-10-08T23:58:07.592Z,67.49
